Time;durP1;ratioP1;P1;durP2;ratioP2;P2;SDS_P1;SDS_P2;PMS_P1;PMS_P2;Temp;Humidity;BMP_temperature;BMP_pressure;BME280_temperature;BME280_humidity;BME280_pressure;Samples;Min_cycle;Max_cycle;Signal;HPM_P1;HPM_P2
2023/05/17 00:02:20;;;;;;;19.60;11.70;;;;;;;14.27;69.52;98486.64;105173;1256;97888;-86
2023/05/17 00:04:48;;;;;;;20.40;11.40;;;;;;;14.27;69.53;98488.27;105205;1266;107717;-84
2023/05/17 00:07:16;;;;;;;19.40;11.20;;;;;;;14.27;69.62;98489.48;104960;1270;97950;-83
2023/05/17 00:09:44;;;;;;;21.00;11.80;;;;;;;14.27;69.57;98486.30;105173;1254;96629;-83
2023/05/17 00:12:12;;;;;;;20.00;12.10;;;;;;;14.26;69.62;98480.51;105271;1267;111065;-89
2023/05/17 00:14:40;;;;;;;23.40;12.30;;;;;;;14.25;69.79;98478.64;105194;1267;97400;-82
2023/05/17 00:17:08;;;;;;;19.60;11.40;;;;;;;14.25;69.78;98473.16;105231;1259;107646;-83
2023/05/17 00:19:38;;;;;;;22.10;12.70;;;;;;;14.25;69.91;98465.66;105205;1266;96692;-85
2023/05/17 00:22:07;;;;;;;20.10;11.80;;;;;;;14.25;69.88;98462.06;105190;1260;97945;-84
2023/05/17 00:24:35;;;;;;;21.30;12.40;;;;;;;14.26;70.00;98465.44;105254;1266;111041;-83
2023/05/17 00:27:03;;;;;;;21.40;11.80;;;;;;;14.26;69.97;98476.63;105204;1267;96609;-83
2023/05/17 00:29:31;;;;;;;20.90;12.50;;;;;;;14.26;70.02;98468.40;105188;1266;107160;-84
2023/05/17 00:31:59;;;;;;;20.40;11.90;;;;;;;14.27;70.09;98472.08;105192;1258;96655;-83
2023/05/17 00:34:27;;;;;;;21.80;13.00;;;;;;;14.27;70.12;98476.33;105189;1267;96536;-84
2023/05/17 00:36:55;;;;;;;20.80;11.50;;;;;;;14.27;70.17;98479.01;105184;1260;110223;-83
2023/05/17 00:39:24;;;;;;;22.50;12.40;;;;;;;14.26;70.15;98479.84;105270;1254;96616;-83
2023/05/17 00:41:52;;;;;;;21.10;12.60;;;;;;;14.25;70.26;98481.88;105237;1268;107225;-83
2023/05/17 00:44:20;;;;;;;21.00;12.90;;;;;;;14.25;70.40;98480.80;105166;1256;96686;-84
2023/05/17 00:46:49;;;;;;;21.60;12.00;;;;;;;14.26;70.38;98484.66;105182;1258;96529;-85
2023/05/17 00:49:18;;;;;;;21.40;11.60;;;;;;;14.26;70.40;98486.10;105197;1257;110158;-85
2023/05/17 00:51:47;;;;;;;21.30;12.20;;;;;;;14.25;70.44;98485.95;105188;1257;97518;-83
2023/05/17 00:54:15;;;;;;;21.80;12.80;;;;;;;14.26;70.39;98494.95;105133;1252;108190;-83
2023/05/17 00:56:43;;;;;;;24.10;12.90;;;;;;;14.26;70.50;98496.20;105198;1266;96686;-83
2023/05/17 00:59:12;;;;;;;21.60;12.20;;;;;;;14.27;70.53;98496.86;105231;1260;97876;-84
2023/05/17 01:01:42;;;;;;;21.50;12.70;;;;;;;14.27;70.52;98492.75;105166;1267;109819;-83
2023/05/17 01:04:11;;;;;;;20.90;12.70;;;;;;;14.25;70.55;98489.00;105260;1259;96616;-84
2023/05/17 01:06:39;;;;;;;20.20;12.40;;;;;;;14.24;70.70;98488.75;105196;1261;108545;-83
2023/05/17 01:09:10;;;;;;;20.80;12.20;;;;;;;14.24;70.70;98484.54;105143;1257;98085;-84
2023/05/17 01:11:58;;;;;;;19.80;11.30;;;;;;;14.21;70.68;98479.02;105170;1257;96596;-84
2023/05/17 01:15:02;;;;;;;19.70;11.40;;;;;;;14.19;70.77;98476.92;105221;1268;110785;-82
2023/05/17 01:17:51;;;;;;;18.10;10.30;;;;;;;14.16;70.89;98477.45;105163;1261;97144;-82
2023/05/17 01:20:40;;;;;;;20.00;11.20;;;;;;;14.13;70.92;98475.58;105193;1267;107748;-84
2023/05/17 01:23:57;;;;;;;19.00;11.10;;;;;;;14.10;71.04;98479.95;105271;1266;97432;-84
2023/05/17 01:26:38;;;;;;;19.40;11.50;;;;;;;14.09;71.10;98480.58;105123;1257;96979;-82
2023/05/17 01:29:08;;;;;;;20.90;11.80;;;;;;;14.10;71.11;98475.24;105157;1264;110150;-84
2023/05/17 01:31:38;;;;;;;18.10;10.40;;;;;;;14.11;71.12;98476.06;105332;1259;96520;-84
2023/05/17 01:34:09;;;;;;;16.80;9.80;;;;;;;14.11;71.17;98471.84;105200;1253;106919;-83
2023/05/17 01:36:37;;;;;;;20.20;10.60;;;;;;;14.10;71.20;98470.49;105074;1252;97845;-84
2023/05/17 01:39:07;;;;;;;19.60;10.80;;;;;;;14.11;71.35;98473.27;105253;1259;97410;-83
2023/05/17 01:41:45;;;;;;;19.80;11.30;;;;;;;14.10;71.30;98477.21;105229;1257;109292;-82
2023/05/17 01:44:37;;;;;;;18.90;11.00;;;;;;;14.11;71.37;98476.05;105234;1257;97417;-84
2023/05/17 01:47:15;;;;;;;21.20;11.30;;;;;;;14.11;71.46;98480.00;105213;1257;107387;-83
2023/05/17 01:49:47;;;;;;;21.20;11.00;;;;;;;14.11;71.51;98481.80;105236;1257;96620;-82
2023/05/17 01:52:29;;;;;;;19.40;11.00;;;;;;;14.12;71.53;98478.46;105284;1254;96525;-83
2023/05/17 01:55:00;;;;;;;20.00;11.70;;;;;;;14.13;71.49;98474.13;105038;1267;111160;-83
2023/05/17 01:57:34;;;;;;;21.80;11.70;;;;;;;14.13;71.50;98474.05;105208;1264;97543;-84
2023/05/17 02:00:08;;;;;;;19.10;10.90;;;;;;;14.15;71.65;98476.59;105201;1260;106659;-83
2023/05/17 02:02:37;;;;;;;21.00;11.60;;;;;;;14.16;71.64;98480.64;105083;1267;273092;-83
2023/05/17 02:05:05;;;;;;;20.40;11.90;;;;;;;14.15;71.65;98480.70;105332;1256;96586;-83
2023/05/17 02:07:33;;;;;;;20.30;11.30;;;;;;;14.16;71.70;98479.95;105175;1268;108838;-85
2023/05/17 02:10:02;;;;;;;19.90;10.70;;;;;;;14.15;71.73;98482.46;105202;1259;96594;-84
2023/05/17 02:12:31;;;;;;;20.20;11.20;;;;;;;14.16;71.80;98487.60;105229;1260;108721;-83
2023/05/17 02:14:59;;;;;;;18.70;10.90;;;;;;;14.16;71.88;98491.30;105183;1254;97134;-84
2023/05/17 02:17:27;;;;;;;19.10;10.90;;;;;;;14.16;71.84;98489.74;105164;1259;96571;-83
2023/05/17 02:19:55;;;;;;;20.00;10.60;;;;;;;14.17;71.88;98491.44;105068;1264;108356;-84
2023/05/17 02:22:23;;;;;;;18.40;10.40;;;;;;;14.16;71.97;98491.83;105153;1257;96584;-85
2023/05/17 02:24:51;;;;;;;19.60;9.90;;;;;;;14.17;72.03;98492.14;105159;1254;107135;-87
2023/05/17 02:27:21;;;;;;;21.00;11.60;;;;;;;14.16;72.06;98489.91;105187;1257;97529;-82
2023/05/17 02:29:49;;;;;;;20.10;11.00;;;;;;;14.13;72.00;98489.05;105209;1275;96559;-85
2023/05/17 02:32:17;;;;;;;18.90;10.40;;;;;;;14.13;72.15;98488.58;105300;1257;110199;-84
2023/05/17 02:34:45;;;;;;;20.40;11.10;;;;;;;14.12;72.08;98489.51;105237;1257;96584;-82
2023/05/17 02:37:13;;;;;;;19.50;11.30;;;;;;;14.12;72.18;98491.67;105175;1257;107915;-83
2023/05/17 02:39:41;;;;;;;20.40;12.00;;;;;;;14.11;72.28;98491.37;105939;1257;96508;-83
2023/05/17 02:42:10;;;;;;;20.60;12.10;;;;;;;14.11;72.36;98489.94;105438;1257;96559;-84
2023/05/17 02:44:39;;;;;;;21.40;12.00;;;;;;;14.12;72.33;98490.27;105248;1261;111142;-83
2023/05/17 02:47:07;;;;;;;22.20;12.40;;;;;;;14.11;72.33;98491.40;105167;1257;96593;-83
2023/05/17 02:49:35;;;;;;;20.50;11.90;;;;;;;14.10;72.38;98494.52;105191;1256;107403;-84
2023/05/17 02:52:03;;;;;;;22.20;13.00;;;;;;;14.09;72.43;98493.36;105239;1257;96687;-83
2023/05/17 02:54:31;;;;;;;21.10;13.00;;;;;;;14.08;72.38;98496.36;105280;1266;96629;-84
2023/05/17 02:57:00;;;;;;;19.30;11.90;;;;;;;14.07;72.48;98494.31;105411;1257;109909;-83
2023/05/17 02:59:28;;;;;;;21.70;12.60;;;;;;;14.07;72.49;98496.48;105779;1254;97531;-83
2023/05/17 03:01:56;;;;;;;22.50;12.90;;;;;;;14.06;72.55;98494.28;105649;1257;107964;-82
2023/05/17 03:04:24;;;;;;;21.20;12.40;;;;;;;14.05;72.61;98494.48;105223;1267;96506;-81
2023/05/17 03:06:52;;;;;;;21.00;12.10;;;;;;;14.06;72.61;98496.40;105225;1257;96616;-80
2023/05/17 03:09:20;;;;;;;20.80;13.20;;;;;;;14.06;72.59;98499.54;105208;1257;110960;-81
2023/05/17 03:11:48;;;;;;;20.40;12.30;;;;;;;14.07;72.74;98500.36;105233;1254;96574;-82
2023/05/17 03:14:16;;;;;;;21.30;12.50;;;;;;;14.06;72.68;98491.18;105092;1258;107893;-84
2023/05/17 03:16:44;;;;;;;20.80;12.50;;;;;;;14.05;72.68;98494.50;105166;1257;96721;-83
2023/05/17 03:19:11;;;;;;;21.20;12.00;;;;;;;14.03;72.75;98493.65;105189;1257;96681;-84
2023/05/17 03:21:40;;;;;;;23.40;12.20;;;;;;;14.02;72.74;98491.20;105195;1258;109838;-83
2023/05/17 03:24:07;;;;;;;21.60;12.50;;;;;;;14.01;72.90;98496.73;105240;1257;97933;-82
2023/05/17 03:26:35;;;;;;;22.10;13.30;;;;;;;14.01;72.90;98499.87;105282;1258;107603;-85
2023/05/17 03:29:04;;;;;;;20.10;11.50;;;;;;;14.01;72.99;98501.34;105195;1255;96722;-83
2023/05/17 03:31:39;;;;;;;21.10;12.20;;;;;;;14.02;72.97;98505.89;105176;1254;97616;-89
2023/05/17 03:34:11;;;;;;;23.00;11.80;;;;;;;14.01;73.02;98506.45;105176;1258;109957;-90
2023/05/17 03:36:39;;;;;;;20.50;11.90;;;;;;;14.01;73.08;98504.52;105483;1254;96545;-90
2023/05/17 03:39:10;;;;;;;20.90;11.80;;;;;;;14.03;73.14;98505.08;105329;1257;107275;-89
2023/05/17 03:41:38;;;;;;;21.80;11.70;;;;;;;14.04;73.23;98501.67;105245;1260;97518;-90
2023/05/17 03:44:15;;;;;;;20.60;11.40;;;;;;;14.05;73.16;98510.86;105037;1255;96593;-90
2023/05/17 03:46:43;;;;;;;22.70;12.80;;;;;;;14.09;73.29;98516.58;104992;1259;109382;-89
2023/05/17 03:49:11;;;;;;;20.70;11.90;;;;;;;14.14;73.35;98518.24;105484;1254;97957;-88
2023/05/17 03:51:40;;;;;;;21.60;12.50;;;;;;;14.22;73.41;98521.99;105731;1254;107684;-78
2023/05/17 03:54:14;;;;;;;20.70;12.10;;;;;;;14.28;73.47;98529.18;105310;1257;96608;-88
2023/05/17 03:56:47;;;;;;;20.80;11.80;;;;;;;14.35;73.58;98531.23;106177;1256;96636;-88
2023/05/17 03:59:16;;;;;;;20.60;12.00;;;;;;;14.39;73.46;98534.00;105624;1256;109420;-88
2023/05/17 04:01:50;;;;;;;23.70;12.90;;;;;;;14.43;73.56;98536.49;105630;1257;96660;-88
2023/05/17 04:04:18;;;;;;;21.40;12.50;;;;;;;14.48;73.55;98539.80;105276;1257;107784;-88
2023/05/17 04:06:46;;;;;;;21.40;13.40;;;;;;;14.49;73.45;98541.42;105040;1258;96692;-89
2023/05/17 04:09:14;;;;;;;22.30;13.30;;;;;;;14.51;73.49;98544.15;105075;1257;96572;-89
2023/05/17 04:11:42;;;;;;;23.80;13.40;;;;;;;14.51;73.58;98543.76;105001;1268;109395;-89
2023/05/17 04:14:11;;;;;;;20.20;12.40;;;;;;;14.51;73.56;98543.20;105334;1257;97868;-88
2023/05/17 04:16:38;;;;;;;21.20;12.50;;;;;;;14.51;73.59;98542.48;105410;1254;107638;-89
2023/05/17 04:19:07;;;;;;;21.80;12.60;;;;;;;14.50;73.64;98549.36;105240;1256;96589;-89
2023/05/17 04:21:35;;;;;;;21.70;12.60;;;;;;;14.48;73.61;98550.08;105160;1253;96736;-88
2023/05/17 04:24:03;;;;;;;23.10;14.00;;;;;;;14.48;73.61;98556.16;105289;1257;109910;-89
2023/05/17 04:26:34;;;;;;;21.30;12.70;;;;;;;14.47;73.65;98555.89;105353;1254;96616;-88
2023/05/17 04:29:04;;;;;;;23.60;12.90;;;;;;;14.47;73.77;98557.86;105461;1254;107605;-88
2023/05/17 04:31:33;;;;;;;21.20;12.60;;;;;;;14.47;73.73;98568.09;105527;1257;97897;-88
2023/05/17 04:34:01;;;;;;;21.20;12.80;;;;;;;14.48;73.77;98572.13;105500;1258;96749;-87
2023/05/17 04:36:29;;;;;;;20.60;12.60;;;;;;;14.49;73.85;98572.52;105185;1260;109568;-88
2023/05/17 04:38:58;;;;;;;22.00;13.70;;;;;;;14.51;73.82;98578.94;105483;1257;96635;-89
2023/05/17 04:41:26;;;;;;;20.50;11.90;;;;;;;14.52;73.85;98578.13;105209;1276;107804;-88
2023/05/17 04:43:54;;;;;;;21.60;12.50;;;;;;;14.52;73.97;98584.45;105319;1258;96650;-88
2023/05/17 04:46:22;;;;;;;24.90;13.10;;;;;;;14.54;73.93;98584.02;105672;1267;97227;-88
2023/05/17 04:48:50;;;;;;;20.70;12.80;;;;;;;14.56;73.98;98584.53;105946;1254;110027;-88
2023/05/17 04:51:19;;;;;;;20.50;12.60;;;;;;;14.58;73.92;98588.27;105579;1254;96539;-88
2023/05/17 04:53:48;;;;;;;22.20;13.00;;;;;;;14.60;74.03;98581.09;105384;1269;107626;-88
2023/05/17 04:56:16;;;;;;;21.50;13.00;;;;;;;14.61;74.00;98579.91;105323;1257;96714;-88
2023/05/17 04:58:44;;;;;;;21.20;13.30;;;;;;;14.62;74.02;98578.96;105397;1260;97516;-88
2023/05/17 05:01:12;;;;;;;22.40;12.90;;;;;;;14.63;74.06;98582.95;105381;1270;110071;-89
2023/05/17 05:03:40;;;;;;;22.50;12.80;;;;;;;14.64;74.08;98579.44;105488;1257;96578;-89
2023/05/17 05:06:08;;;;;;;42.80;28.10;;;;;;;14.65;74.07;98578.47;105445;1254;107663;-89
2023/05/17 05:08:37;;;;;;;114.30;71.80;;;;;;;14.65;74.11;98576.55;105420;1257;96686;-88
2023/05/17 05:11:07;;;;;;;67.70;42.20;;;;;;;14.65;74.18;98570.05;105408;1257;96609;-88
2023/05/17 05:13:37;;;;;;;43.20;27.10;;;;;;;14.66;74.17;98565.85;105348;1257;109625;-88
2023/05/17 05:16:06;;;;;;;30.80;19.90;;;;;;;14.71;74.35;98573.82;105448;1253;96664;-87
2023/05/17 05:18:34;;;;;;;24.20;15.70;;;;;;;14.77;74.22;98579.88;105454;1257;106032;-88
2023/05/17 05:21:03;;;;;;;22.90;14.50;;;;;;;14.81;74.39;98583.35;105394;1256;96596;-89
2023/05/17 05:23:32;;;;;;;23.00;14.50;;;;;;;14.87;74.33;98580.26;105162;1259;97832;-88
2023/05/17 05:26:00;;;;;;;22.00;12.40;;;;;;;14.91;74.37;98581.29;105416;1257;109495;-88
2023/05/17 05:28:28;;;;;;;21.50;13.70;;;;;;;14.97;74.39;98582.34;105474;1257;97521;-89
2023/05/17 05:30:58;;;;;;;22.80;12.70;;;;;;;15.00;74.44;98578.08;105193;1260;107369;-88
2023/05/17 05:33:26;;;;;;;20.80;13.20;;;;;;;15.03;74.41;98573.13;105039;1261;96708;-88
2023/05/17 05:35:55;;;;;;;20.00;12.80;;;;;;;15.06;74.39;98568.83;105264;1254;96752;-88
2023/05/17 05:38:23;;;;;;;22.00;13.50;;;;;;;15.10;74.36;98570.93;105563;1257;109564;-88
2023/05/17 05:40:51;;;;;;;20.80;13.00;;;;;;;15.11;74.41;98576.98;105441;1257;96580;-87
2023/05/17 05:43:19;;;;;;;21.50;13.80;;;;;;;15.15;74.51;98581.13;105466;1257;107689;-88
2023/05/17 05:45:47;;;;;;;21.20;13.60;;;;;;;15.22;74.57;98585.27;105414;1254;96698;-88
2023/05/17 05:48:15;;;;;;;21.50;13.20;;;;;;;15.26;74.50;98588.08;105514;1257;96559;-89
2023/05/17 05:50:43;;;;;;;20.80;13.00;;;;;;;15.28;74.39;98595.55;105411;1258;110035;-87
2023/05/17 05:53:12;;;;;;;21.50;13.90;;;;;;;15.27;74.59;98600.02;105168;1260;96600;-88
2023/05/17 05:56:02;;;;;;;20.30;13.20;;;;;;;15.28;74.55;98611.80;105379;1254;108323;-88
2023/05/17 05:58:31;;;;;;;26.80;14.80;;;;;;;15.29;74.59;98612.36;105481;1256;96591;-88
2023/05/17 06:00:59;;;;;;;22.70;14.20;;;;;;;15.30;74.57;98614.81;105239;1256;96596;-87
2023/05/17 06:03:27;;;;;;;21.60;14.50;;;;;;;15.27;74.37;98611.58;105457;1257;108684;-88
2023/05/17 06:05:55;;;;;;;23.20;15.00;;;;;;;15.22;74.44;98620.98;105310;1254;96555;-88
2023/05/17 06:08:24;;;;;;;23.90;14.30;;;;;;;15.19;74.56;98623.42;105501;1267;107260;-89
2023/05/17 06:10:52;;;;;;;25.00;14.90;;;;;;;15.17;74.63;98627.66;105059;1259;96607;-88
2023/05/17 06:13:20;;;;;;;24.40;15.50;;;;;;;15.17;74.71;98634.96;105245;1259;96590;-89
2023/05/17 06:15:48;;;;;;;23.50;15.90;;;;;;;15.17;74.66;98633.55;105464;1257;108731;-88
2023/05/17 06:18:16;;;;;;;23.00;15.50;;;;;;;15.17;74.73;98637.48;105200;1259;97512;-88
2023/05/17 06:20:45;;;;;;;22.90;15.40;;;;;;;15.18;74.80;98647.59;105451;1257;107167;-89
2023/05/17 06:23:14;;;;;;;24.50;15.30;;;;;;;15.18;74.67;98651.52;105349;1256;96722;-88
2023/05/17 06:25:42;;;;;;;23.30;15.60;;;;;;;15.19;74.76;98651.93;105256;1254;96651;-88
2023/05/17 06:28:10;;;;;;;24.80;14.70;;;;;;;15.21;74.72;98654.89;105398;1254;110570;-89
2023/05/17 06:30:38;;;;;;;23.20;15.00;;;;;;;15.23;74.68;98645.20;105166;1266;97082;-89
2023/05/17 06:33:06;;;;;;;23.10;15.60;;;;;;;15.27;74.81;98643.48;105117;1270;107782;-89
2023/05/17 06:35:35;;;;;;;24.40;15.80;;;;;;;15.33;74.81;98645.79;105322;1253;96612;-89
2023/05/17 06:38:48;;;;;;;23.20;15.30;;;;;;;15.40;74.76;98646.67;105232;1259;97867;-89
2023/05/17 06:41:16;;;;;;;25.90;16.00;;;;;;;15.46;74.83;98651.98;105178;1262;109569;-89
2023/05/17 06:43:44;;;;;;;22.20;15.20;;;;;;;15.54;74.87;98655.66;105144;1270;96594;-89
2023/05/17 06:46:13;;;;;;;23.60;16.00;;;;;;;15.62;75.04;98652.70;105426;1257;107522;-89
2023/05/17 06:48:41;;;;;;;22.50;15.20;;;;;;;15.70;74.98;98649.74;105444;1253;96583;-89
2023/05/17 06:51:09;;;;;;;25.00;15.50;;;;;;;15.80;74.91;98652.23;105351;1258;96676;-88
2023/05/17 06:53:38;;;;;;;24.20;15.40;;;;;;;15.87;74.88;98656.91;105507;1256;109546;-89
2023/05/17 06:56:06;;;;;;;23.70;15.70;;;;;;;15.94;75.04;98654.75;105238;1254;97824;-88
2023/05/17 06:58:34;;;;;;;22.90;15.70;;;;;;;16.00;75.03;98652.39;105464;1266;108827;-89
2023/05/17 07:01:03;;;;;;;23.20;16.20;;;;;;;16.09;75.05;98650.36;105175;1256;96778;-89
2023/05/17 07:03:30;;;;;;;22.60;15.70;;;;;;;16.18;74.97;98659.11;105281;1254;96740;-89
2023/05/17 07:05:59;;;;;;;23.20;15.50;;;;;;;16.24;74.89;98659.62;105435;1256;109616;-89
2023/05/17 07:08:28;;;;;;;23.30;15.20;;;;;;;16.32;74.97;98655.86;105388;1256;96511;-89
2023/05/17 07:10:56;;;;;;;22.50;15.30;;;;;;;16.36;74.79;98659.39;105345;1256;107529;-88
2023/05/17 07:13:24;;;;;;;23.70;15.50;;;;;;;16.37;74.85;98669.36;105534;1256;96613;-89
2023/05/17 07:15:52;;;;;;;22.40;14.90;;;;;;;16.37;74.76;98675.56;105313;1253;97540;-89
2023/05/17 07:18:20;;;;;;;23.30;15.00;;;;;;;16.37;75.05;98680.23;105174;1271;109534;-88
2023/05/17 07:20:48;;;;;;;23.00;15.40;;;;;;;16.33;74.76;98679.88;105383;1257;96571;-89
2023/05/17 07:23:17;;;;;;;23.40;16.10;;;;;;;16.35;74.97;98674.17;105440;1254;106642;-88
2023/05/17 07:25:46;;;;;;;23.10;15.40;;;;;;;16.40;74.81;98672.83;105373;1257;96664;-89
2023/05/17 07:28:14;;;;;;;24.20;16.30;;;;;;;16.43;74.81;98681.97;105246;1258;97940;-88
2023/05/17 07:30:42;;;;;;;23.90;16.40;;;;;;;16.49;74.93;98689.05;105369;1257;108904;-89
2023/05/17 07:33:10;;;;;;;24.60;16.90;;;;;;;16.53;74.91;98690.81;105248;1254;96514;-89
2023/05/17 07:35:39;;;;;;;24.90;16.60;;;;;;;16.51;74.90;98695.09;105226;1270;107039;-88
2023/05/17 07:38:09;;;;;;;26.20;18.00;;;;;;;16.51;74.87;98693.25;105337;1254;97512;-89
2023/05/17 07:40:38;;;;;;;24.50;16.90;;;;;;;16.54;74.81;98697.66;105217;1256;97512;-89
2023/05/17 07:43:06;;;;;;;23.90;16.70;;;;;;;16.54;74.81;98698.23;105202;1260;110372;-89
2023/05/17 07:45:34;;;;;;;23.40;16.20;;;;;;;16.59;75.05;98701.25;105415;1269;96594;-89
2023/05/17 07:48:02;;;;;;;25.60;17.50;;;;;;;16.63;74.99;98703.16;105136;1266;107789;-89
2023/05/17 07:50:31;;;;;;;24.60;17.00;;;;;;;16.62;74.81;98706.47;105346;1266;96706;-89
2023/05/17 07:53:00;;;;;;;23.60;16.70;;;;;;;16.61;74.87;98707.73;105101;1255;96582;-89
2023/05/17 07:55:28;;;;;;;23.40;15.80;;;;;;;16.59;74.88;98708.84;105304;1257;109877;-89
2023/05/17 07:57:56;;;;;;;25.70;16.60;;;;;;;16.55;74.75;98710.09;105379;1257;96565;-87
2023/05/17 08:04:55;;;;;;;;;;;;;;;16.44;75.06;98721.64;105360;1269;96589;-89
2023/05/17 08:11:44;;;;;;;24.40;15.00;;;;;;;16.31;74.91;98720.41;105352;1253;111321;-88
2023/05/17 08:16:08;;;;;;;23.60;16.00;;;;;;;16.24;74.89;98729.02;105009;1261;96651;-88
2023/05/17 08:31:49;;;;;;;23.10;15.80;;;;;;;15.87;75.21;98731.07;104714;1274;110014;-89
2023/05/17 08:38:36;;;;;;;24.70;16.20;;;;;;;15.77;75.20;98733.13;104987;1260;109068;-90
2023/05/17 08:54:31;;;;;;;24.00;16.30;;;;;;;15.58;75.15;98766.92;104943;1259;97434;-89
2023/05/17 08:58:59;;;;;;;24.70;16.00;;;;;;;15.54;75.15;98764.20;104680;1279;109784;-89
2023/05/17 09:10:12;;;;;;;23.50;16.20;;;;;;;15.77;75.34;98766.14;104594;1268;113396;-90
2023/05/17 09:21:17;;;;;;;22.90;15.00;;;;;;;15.66;75.40;98767.14;104448;1267;96685;-90
2023/05/17 09:41:52;;;;;;;22.50;14.60;;;;;;;15.59;75.70;98763.69;104789;1283;96887;-90
2023/05/17 09:46:19;;;;;;;20.70;13.30;;;;;;;15.53;75.58;98762.61;104545;1267;96789;-88
2023/05/17 09:53:14;;;;;;;;;;;;;;;;;;;;;
2023/05/17 09:57:35;;;;;;;16.40;9.00;;;;;;;15.58;75.90;98764.79;104367;1273;108998;-88
2023/05/17 10:17:56;;;;;;;9.10;5.50;;;;;;;16.26;76.00;98766.73;104821;1259;109093;-89
2023/05/17 10:24:50;;;;;;;8.50;4.80;;;;;;;16.30;75.57;98775.05;104965;1259;96688;-90
2023/05/17 10:36:12;;;;;;;7.60;4.30;;;;;;;16.12;75.84;98774.36;104919;1264;107964;-90
2023/05/17 10:40:35;;;;;;;6.40;4.40;;;;;;;16.16;76.04;98778.83;104479;1265;96755;-90
2023/05/17 10:51:59;;;;;;;4.70;3.60;;;;;;;16.52;75.50;98792.95;103927;1277;96833;-90
2023/05/17 11:11:47;;;;;;;;;;;;;;;;;;;;;
2023/05/17 11:16:03;;;;;;;2.40;1.90;;;;;;;16.49;75.47;98799.95;104756;1266;108957;-90
2023/05/17 11:40:40;;;;;;;2.20;2.00;;;;;;;15.96;75.67;98799.89;104391;1270;96667;-90
2023/05/17 11:47:31;;;;;;;3.50;1.80;;;;;;;16.00;75.53;98807.05;104441;1270;111255;-90
2023/05/17 12:03:24;;;;;;;2.90;1.60;;;;;;;16.01;75.69;98809.93;103949;1274;96634;-89
2023/05/17 12:23:39;;;;;;;1.60;1.50;;;;;;;15.51;75.84;98838.98;104417;1282;96693;-91
2023/05/17 12:30:33;;;;;;;4.20;2.30;;;;;;;15.36;75.83;98843.55;104526;1281;96771;-90
2023/05/17 12:50:31;;;;;;;5.00;2.70;;;;;;;15.10;76.03;98841.97;105076;1264;97421;-89
2023/05/17 13:01:45;;;;;;;1.80;1.60;;;;;;;14.94;76.12;98852.77;104944;1265;98136;-89
2023/05/17 13:21:38;;;;;;;8.10;4.10;;;;;;;14.80;76.33;98849.05;104464;1272;96706;-91
2023/05/17 13:41:24;;;;;;;4.00;2.50;;;;;;;14.75;76.46;98855.93;104078;1276;97684;-89
2023/05/17 13:48:54;;;;;;;6.70;3.60;;;;;;;14.72;76.39;98856.53;104181;1276;97867;-89
2023/05/17 14:04:07;;;;;;;3.00;2.30;;;;;;;14.53;76.60;98890.02;97458;1268;109238;-90
2023/05/17 15:31:09;;;;;;;4.30;2.20;;;;;;;14.22;77.23;98939.23;102229;1272;953566;-87
2023/05/17 15:33:41;;;;;;;2.60;2.00;;;;;;;14.18;77.16;98946.38;104577;1271;96707;-84
2023/05/17 15:36:10;;;;;;;3.60;2.20;;;;;;;14.14;77.12;98946.54;104238;1273;97103;-83
2023/05/17 15:38:40;;;;;;;6.10;3.90;;;;;;;14.17;77.32;98949.88;104257;1269;110424;-84
2023/05/17 15:41:14;;;;;;;2.60;1.70;;;;;;;14.18;77.24;98955.78;104107;1274;96656;-82
2023/05/17 15:43:42;;;;;;;9.70;2.90;;;;;;;14.11;77.17;98964.63;104117;1280;107386;-84
2023/05/17 15:46:11;;;;;;;6.00;2.50;;;;;;;13.99;77.17;98967.96;104089;1290;96739;-86
2023/05/17 15:48:39;;;;;;;3.20;1.80;;;;;;;13.93;77.21;98967.96;104309;1269;96622;-86
2023/05/17 15:51:07;;;;;;;5.10;2.20;;;;;;;13.89;77.21;98971.77;104350;1273;109947;-87
2023/05/17 15:53:36;;;;;;;7.00;4.60;;;;;;;13.85;77.29;98979.05;104233;1273;96709;-88
2023/05/17 15:56:04;;;;;;;7.00;2.90;;;;;;;13.81;77.38;98975.84;104671;1269;107601;-83
2023/05/17 15:58:37;;;;;;;3.90;2.20;;;;;;;13.74;77.25;98979.09;104429;1272;96634;-84
2023/05/17 16:01:06;;;;;;;5.90;2.60;;;;;;;13.66;77.39;98981.38;104595;1268;96664;-85
2023/05/17 16:03:34;;;;;;;6.10;2.30;;;;;;;13.62;77.49;98985.70;104561;1269;110064;-83
2023/05/17 16:06:03;;;;;;;6.50;3.10;;;;;;;13.58;77.34;98990.45;104337;1281;97486;-85
2023/05/17 16:08:39;;;;;;;5.20;3.00;;;;;;;13.55;77.23;98982.52;104368;1274;107683;-86
2023/05/17 16:11:08;;;;;;;8.10;3.00;;;;;;;13.53;77.48;98990.00;104635;1274;96653;-88
2023/05/17 16:13:36;;;;;;;4.50;2.60;;;;;;;13.52;77.42;98992.55;104571;1272;96669;-88
2023/05/17 16:16:05;;;;;;;7.30;3.80;;;;;;;13.50;77.42;98993.80;104445;1281;110644;-84
2023/05/17 16:18:33;;;;;;;4.80;3.10;;;;;;;13.48;77.44;98999.48;104360;1274;96644;-83
2023/05/17 16:21:03;;;;;;;5.00;2.40;;;;;;;13.42;77.50;99005.02;104167;1273;107771;-86
2023/05/17 16:23:31;;;;;;;6.40;2.70;;;;;;;13.40;77.65;99012.42;104345;1274;97027;-84
2023/05/17 16:25:59;;;;;;;6.60;3.30;;;;;;;13.38;77.51;99019.35;104351;1281;96595;-84
2023/05/17 16:28:27;;;;;;;13.70;5.40;;;;;;;13.36;77.49;99024.33;104304;1273;110735;-87
2023/05/17 16:30:56;;;;;;;14.70;5.70;;;;;;;13.34;77.51;99019.21;104465;1271;97573;-83
2023/05/17 16:33:25;;;;;;;12.50;5.10;;;;;;;13.33;77.57;99020.52;104388;1272;107671;-85
2023/05/17 16:35:53;;;;;;;12.60;4.90;;;;;;;13.33;77.58;99024.75;104424;1273;96721;-84
2023/05/17 16:38:24;;;;;;;19.00;12.00;;;;;;;13.34;77.56;99022.55;104275;1272;96544;-85
2023/05/17 16:40:55;;;;;;;18.60;9.60;;;;;;;13.32;77.61;99026.09;104439;1270;109946;-87
2023/05/17 16:43:23;;;;;;;7.90;3.80;;;;;;;13.31;77.63;99027.48;104298;1274;96764;-85
2023/05/17 16:45:51;;;;;;;7.80;4.10;;;;;;;13.32;77.67;99039.28;104427;1271;108917;-86
2023/05/17 16:48:19;;;;;;;5.60;2.80;;;;;;;13.32;77.68;99042.31;104475;1274;96617;-87
2023/05/17 16:50:48;;;;;;;5.10;2.30;;;;;;;13.32;77.65;99049.09;104187;1273;97578;-87
2023/05/17 16:53:16;;;;;;;6.30;3.30;;;;;;;13.32;77.64;99054.46;104508;1273;109962;-84
2023/05/17 16:55:44;;;;;;;11.50;5.30;;;;;;;13.29;77.59;99064.83;104682;1270;97550;-87
2023/05/17 16:58:12;;;;;;;12.80;5.70;;;;;;;13.29;77.62;99066.23;104265;1272;106177;-87
2023/05/17 17:00:41;;;;;;;11.20;4.90;;;;;;;13.27;77.75;99074.41;104555;1272;96629;-85
2023/05/17 17:03:10;;;;;;;8.50;3.60;;;;;;;13.25;77.80;99084.95;104716;1270;96522;-86
2023/05/17 17:05:41;;;;;;;6.90;3.00;;;;;;;13.22;77.78;99083.53;104395;1273;110655;-86
2023/05/17 17:08:10;;;;;;;15.00;7.20;;;;;;;13.20;77.79;99088.38;104423;1280;96717;-86
2023/05/17 17:10:38;;;;;;;12.10;5.30;;;;;;;13.20;77.76;99091.94;104425;1273;107171;-84
2023/05/17 17:13:06;;;;;;;8.10;4.20;;;;;;;13.18;77.72;99092.80;104941;1273;96638;-86
2023/05/17 17:15:34;;;;;;;7.10;3.70;;;;;;;13.16;77.77;99099.38;104850;1273;96550;-86
2023/05/17 17:18:03;;;;;;;10.30;4.00;;;;;;;13.15;77.82;99105.70;104398;1273;110065;-85
2023/05/17 17:23:43;;;;;;;6.60;3.40;;;;;;;13.07;77.90;99112.23;105649;1271;108000;-90
2023/05/17 17:26:11;;;;;;;4.70;2.90;;;;;;;13.06;78.02;99115.34;104654;1272;96650;-90
2023/05/17 17:28:39;;;;;;;4.40;2.60;;;;;;;13.04;77.86;99120.16;104699;1272;96569;-84
2023/05/17 17:31:07;;;;;;;7.30;3.70;;;;;;;12.99;77.84;99123.68;104201;1273;109562;-84
2023/05/17 17:34:15;;;;;;;12.50;4.10;;;;;;;12.97;77.99;99131.76;104322;1279;96592;-89
2023/05/17 17:36:45;;;;;;;11.30;6.40;;;;;;;12.91;77.83;99128.61;104674;1268;107851;-87
2023/05/17 17:39:16;;;;;;;13.80;7.40;;;;;;;12.88;77.90;99131.55;104802;1268;96595;-88
2023/05/17 17:41:44;;;;;;;13.80;7.20;;;;;;;12.83;77.92;99133.00;104807;1272;96603;-87